Laws Hill, Mississippi
Current Conditions -  °F | °C
As of 2:55 PM on Thursday 27 Nov 2014 (Local Time) from KUOX Reporting Station
Few Clouds Few Clouds  
Wind Chill: 39°   Ceiling: Unl
Heat Index: 43°   Visibility: 10mi
Dew Point: 27°   Wind: 7mph
Humidity: 53%   Direction: 360°N
Pressure: 30.48"   Gusts: 18mph
Location:  34.6374°N, 89.4672°W
Report Text: KUOX 272055Z AUTO 36006G16KT 10SM FEW035 06/M03 A3048 RMK AO2 PWINO PNO
Loading
Personal Weather Stations






























Interactive Weather Map New forecast layout! Learn more

10-Day Weather Forecast

Advertisements
Track Severe Weather on mobile